createdAt,value
2017-09-11T00:01:14.362Z,10.40
2017-09-11T00:03:41.820Z,10.40
2017-09-11T00:06:09.273Z,10.30
2017-09-11T00:08:36.717Z,10.30
2017-09-11T00:11:04.954Z,10.30
2017-09-11T00:13:32.514Z,10.30
2017-09-11T00:15:59.968Z,10.20
2017-09-11T00:18:27.426Z,10.10
2017-09-11T00:20:54.891Z,10.10
2017-09-11T00:23:22.342Z,10.10
2017-09-11T00:25:49.805Z,10.10
2017-09-11T00:28:17.266Z,10.00
2017-09-11T00:30:44.734Z,10.00
2017-09-11T00:33:12.954Z,10.30
2017-09-11T00:35:40.413Z,10.30
2017-09-11T00:38:07.866Z,10.30
2017-09-11T00:40:35.359Z,10.40
2017-09-11T00:43:02.808Z,10.50
2017-09-11T00:45:30.365Z,10.30
2017-09-11T00:47:57.926Z,10.30
2017-09-11T00:50:25.482Z,10.30
2017-09-11T00:52:52.947Z,10.30
2017-09-11T00:55:20.497Z,10.30
2017-09-11T00:57:48.496Z,10.40
2017-09-11T01:00:15.951Z,10.40
2017-09-11T01:02:43.427Z,10.30
2017-09-11T01:05:11.645Z,10.30
2017-09-11T01:07:39.101Z,10.30
2017-09-11T01:10:06.554Z,10.30
2017-09-11T01:12:34.014Z,10.50
2017-09-11T01:15:01.492Z,10.50
2017-09-11T01:17:28.962Z,10.60
2017-09-11T01:19:56.416Z,10.50
2017-09-11T01:22:25.381Z,10.40
2017-09-11T01:24:52.840Z,10.40
2017-09-11T01:27:20.293Z,10.40
2017-09-11T01:29:47.745Z,10.40
2017-09-11T01:32:15.223Z,10.40
2017-09-11T01:34:42.674Z,10.40
2017-09-11T01:37:10.171Z,10.50
2017-09-11T01:39:38.397Z,10.70
2017-09-11T01:42:05.846Z,10.60
2017-09-11T01:44:33.314Z,10.70
2017-09-11T01:47:00.757Z,10.70
2017-09-11T01:49:28.230Z,10.70
2017-09-11T01:51:55.682Z,10.80
2017-09-11T01:54:23.250Z,10.80
2017-09-11T01:56:50.730Z,10.70
2017-09-11T01:59:18.193Z,10.70
2017-09-11T02:01:46.413Z,10.70
2017-09-11T02:04:13.871Z,10.70
2017-09-11T02:06:41.322Z,10.70
2017-09-11T02:09:08.782Z,10.80
2017-09-11T02:11:36.239Z,10.80
2017-09-11T02:14:03.693Z,10.90
2017-09-11T02:16:31.145Z,10.90
2017-09-11T02:18:58.631Z,10.90
2017-09-11T02:21:26.082Z,11.00
2017-09-11T02:23:53.554Z,11.00
2017-09-11T02:26:20.999Z,11.00
2017-09-11T02:28:48.466Z,11.10
2017-09-11T02:31:17.426Z,11.20
2017-09-11T02:33:44.881Z,11.30
2017-09-11T02:36:12.344Z,11.40
2017-09-11T02:41:13.744Z,11.50
2017-09-11T02:43:41.190Z,11.60
2017-09-11T02:46:08.655Z,11.70
2017-09-11T02:48:36.106Z,11.80
2017-09-11T02:51:03.561Z,11.70
2017-09-11T02:53:31.015Z,11.70
2017-09-11T02:55:58.485Z,11.70
2017-09-11T02:58:25.945Z,11.80
2017-09-11T03:00:53.405Z,11.80
2017-09-11T03:03:22.854Z,11.80
2017-09-11T03:05:50.309Z,11.70
2017-09-11T03:08:17.769Z,11.80
2017-09-11T03:10:45.230Z,11.80
2017-09-11T03:13:12.681Z,11.80
2017-09-11T03:15:40.137Z,11.70
2017-09-11T03:18:07.594Z,11.70
2017-09-11T03:20:35.077Z,11.60
2017-09-11T03:23:02.551Z,11.50
2017-09-11T03:25:29.994Z,11.50
2017-09-11T03:27:57.490Z,11.50
2017-09-11T03:30:25.702Z,11.30
2017-09-11T03:32:56.384Z,11.30
2017-09-11T03:35:25.824Z,11.30
2017-09-11T03:37:53.295Z,11.30
2017-09-11T03:40:20.741Z,11.30
2017-09-11T03:42:49.390Z,11.30
2017-09-11T03:45:17.600Z,11.40
2017-09-11T03:47:45.063Z,11.40
2017-09-11T03:50:12.512Z,11.30
2017-09-11T03:52:43.856Z,11.30
2017-09-11T03:55:11.302Z,11.30
2017-09-11T03:57:38.753Z,11.20
2017-09-11T04:00:06.211Z,11.20
2017-09-11T04:02:33.686Z,11.20
2017-09-11T04:05:01.170Z,11.20
2017-09-11T04:07:28.634Z,11.20
2017-09-11T04:09:56.104Z,11.20
2017-09-11T04:12:23.550Z,11.30
2017-09-11T04:14:51.025Z,11.30
2017-09-11T04:17:18.482Z,11.20
2017-09-11T04:19:45.937Z,11.20
2017-09-11T04:22:13.378Z,11.20
2017-09-11T04:24:40.926Z,11.10
2017-09-11T04:27:09.892Z,11.10
2017-09-11T04:29:37.366Z,11.10
2017-09-11T04:32:04.817Z,11.20
2017-09-11T04:34:32.289Z,11.10
2017-09-11T04:36:59.733Z,11.00
2017-09-11T04:39:27.190Z,11.00
2017-09-11T04:41:54.633Z,11.00
2017-09-11T04:44:22.098Z,10.90
2017-09-11T04:46:49.554Z,10.80
2017-09-11T04:49:17.016Z,10.90
2017-09-11T04:51:44.457Z,11.00
2017-09-11T04:54:11.916Z,11.00
2017-09-11T04:56:39.367Z,11.00
2017-09-11T04:59:06.863Z,11.00
2017-09-11T05:01:34.310Z,11.00
2017-09-11T05:04:01.770Z,11.10
2017-09-11T05:06:29.213Z,11.10
2017-09-11T05:08:56.673Z,11.10
2017-09-11T05:11:24.127Z,11.00
2017-09-11T05:13:51.594Z,11.00
2017-09-11T05:16:19.051Z,11.00
2017-09-11T05:18:46.497Z,11.00
2017-09-11T05:21:14.077Z,11.10
2017-09-11T05:23:41.526Z,11.20
2017-09-11T05:26:08.982Z,11.40
2017-09-11T05:28:36.432Z,11.40
2017-09-11T05:31:03.899Z,11.40
2017-09-11T05:33:31.366Z,11.50
2017-09-11T05:35:58.830Z,11.60
2017-09-11T05:38:26.273Z,11.80
2017-09-11T05:40:53.742Z,11.90
2017-09-11T05:43:21.185Z,11.90
2017-09-11T05:45:48.644Z,11.90
2017-09-11T05:48:16.102Z,12.00
2017-09-11T05:50:43.562Z,12.00
2017-09-11T05:53:11.014Z,11.80
2017-09-11T05:55:38.477Z,11.80
2017-09-11T05:58:06.020Z,11.90
2017-09-11T06:00:33.477Z,11.90
2017-09-11T06:03:00.932Z,11.90
2017-09-11T06:05:28.405Z,12.00
2017-09-11T06:07:55.853Z,12.00
2017-09-11T06:10:23.406Z,12.00
2017-09-11T06:12:50.863Z,12.10
2017-09-11T06:15:18.318Z,12.10
2017-09-11T06:17:45.782Z,12.20
2017-09-11T06:20:13.242Z,12.50
2017-09-11T06:22:40.689Z,12.80
2017-09-11T06:25:08.143Z,13.00
2017-09-11T06:27:35.605Z,13.30
2017-09-11T06:30:03.066Z,13.50
2017-09-11T06:32:30.521Z,13.60
2017-09-11T06:34:57.979Z,13.80
2017-09-11T06:37:25.525Z,13.90
2017-09-11T06:39:52.983Z,14.10
2017-09-11T06:42:20.439Z,13.90
2017-09-11T06:44:47.903Z,14.00
2017-09-11T06:47:15.362Z,14.00
2017-09-11T06:49:42.814Z,14.00
2017-09-11T06:52:10.275Z,14.00
2017-09-11T06:54:37.730Z,13.90
2017-09-11T06:57:05.189Z,13.90
2017-09-11T06:59:32.734Z,13.80
2017-09-11T07:02:00.214Z,13.90
2017-09-11T07:04:27.662Z,14.00
2017-09-11T07:06:55.114Z,13.90
2017-09-11T07:09:22.585Z,13.90
2017-09-11T07:11:50.118Z,14.10
2017-09-11T07:14:17.686Z,14.30
2017-09-11T07:16:45.130Z,14.60
2017-09-11T07:19:12.584Z,15.00
2017-09-11T07:21:40.039Z,15.40
2017-09-11T07:24:07.493Z,15.80
2017-09-11T07:26:34.947Z,16.20
2017-09-11T07:29:02.416Z,16.50
2017-09-11T07:31:29.862Z,16.70
2017-09-11T07:33:57.325Z,16.70
2017-09-11T07:36:24.770Z,16.80
2017-09-11T07:38:52.225Z,16.80
2017-09-11T07:41:19.677Z,16.70
2017-09-11T07:43:47.143Z,16.40
2017-09-11T07:46:14.613Z,16.10
2017-09-11T07:48:42.068Z,16.10
2017-09-11T07:51:09.527Z,16.20
2017-09-11T07:53:37.092Z,16.30
2017-09-11T07:56:04.541Z,16.30
2017-09-11T07:58:31.991Z,16.10
2017-09-11T08:00:59.449Z,16.00
2017-09-11T08:03:26.896Z,15.90
2017-09-11T08:05:54.354Z,16.10
2017-09-11T08:08:21.809Z,15.80
2017-09-11T08:10:49.265Z,15.90
2017-09-11T08:13:16.726Z,16.00
2017-09-11T08:15:44.181Z,16.20
2017-09-11T08:18:11.637Z,16.30
2017-09-11T08:20:39.105Z,16.40
2017-09-11T08:23:06.561Z,16.30
2017-09-11T08:25:34.014Z,16.30
2017-09-11T08:28:01.470Z,16.40
2017-09-11T08:30:28.931Z,16.50
2017-09-11T08:32:56.377Z,16.30
2017-09-11T08:35:23.838Z,16.20
2017-09-11T08:37:51.293Z,16.20
2017-09-11T08:40:18.778Z,16.10
2017-09-11T08:42:46.230Z,16.10
2017-09-11T08:45:13.694Z,16.10
2017-09-11T08:47:41.243Z,16.00
2017-09-11T08:50:08.710Z,16.00
2017-09-11T08:52:36.167Z,16.10
2017-09-11T08:55:04.386Z,16.40
2017-09-11T08:57:31.881Z,16.40
2017-09-11T08:59:59.330Z,16.60
2017-09-11T09:02:26.804Z,16.60
2017-09-11T09:04:54.253Z,16.70
2017-09-11T09:07:21.718Z,16.90
2017-09-11T09:09:49.859Z,17.00
2017-09-11T09:12:17.317Z,17.00
2017-09-11T09:14:44.772Z,17.20
2017-09-11T09:17:12.229Z,17.50
2017-09-11T09:19:39.695Z,17.50
2017-09-11T09:22:07.256Z,17.50
2017-09-11T09:24:34.718Z,17.70
2017-09-11T09:27:02.186Z,18.00
2017-09-11T09:29:29.636Z,18.30
2017-09-11T09:31:57.087Z,18.30
2017-09-11T09:34:24.653Z,18.60
2017-09-11T09:36:52.110Z,18.60
2017-09-11T09:39:19.578Z,18.70
2017-09-11T09:41:47.025Z,18.40
2017-09-11T09:44:14.485Z,18.50
2017-09-11T09:46:41.943Z,18.10
2017-09-11T09:49:09.486Z,18.10
2017-09-11T09:51:36.947Z,18.00
2017-09-11T09:54:04.411Z,18.00
2017-09-11T09:56:31.963Z,18.00
2017-09-11T09:58:59.414Z,18.00
2017-09-11T10:01:26.877Z,18.10
2017-09-11T10:03:54.338Z,18.10
2017-09-11T10:06:21.798Z,18.10
2017-09-11T10:08:50.110Z,18.20
2017-09-11T10:11:17.557Z,18.40
2017-09-11T10:13:45.774Z,18.00
2017-09-11T10:16:13.249Z,18.00
2017-09-11T10:18:40.716Z,18.40
2017-09-11T10:21:08.182Z,18.50
2017-09-11T10:23:35.638Z,18.80
2017-09-11T10:26:03.099Z,18.90
2017-09-11T10:28:30.629Z,18.70
2017-09-11T10:30:58.193Z,18.60
2017-09-11T10:33:25.641Z,18.60
2017-09-11T10:35:53.115Z,18.80
2017-09-11T10:38:20.560Z,18.50
2017-09-11T10:40:48.167Z,18.50
2017-09-11T10:43:16.381Z,18.50
2017-09-11T10:45:44.269Z,18.40
2017-09-11T10:48:11.722Z,18.60
2017-09-11T10:50:39.185Z,18.80
2017-09-11T10:53:06.642Z,18.60
2017-09-11T10:55:34.120Z,18.50
2017-09-11T10:58:01.566Z,18.30
2017-09-11T11:00:29.011Z,18.10
2017-09-11T11:02:56.462Z,18.00
2017-09-11T11:05:23.955Z,17.80
2017-09-11T11:07:52.166Z,16.50
2017-09-11T11:10:19.621Z,16.40
2017-09-11T11:12:47.087Z,15.40
2017-09-11T11:15:14.538Z,14.70
2017-09-11T11:17:41.990Z,14.20
2017-09-11T11:20:09.474Z,14.00
2017-09-11T11:22:37.030Z,13.80
2017-09-11T11:25:04.477Z,13.80
2017-09-11T11:27:31.938Z,13.80
2017-09-11T11:29:59.395Z,13.70
2017-09-11T11:32:26.855Z,13.70
2017-09-11T11:34:54.422Z,13.90
2017-09-11T11:37:21.886Z,14.00
2017-09-11T11:39:49.336Z,14.00
2017-09-11T11:42:16.902Z,14.00
2017-09-11T11:44:44.341Z,13.80
2017-09-11T11:47:11.807Z,13.80
2017-09-11T11:49:40.768Z,13.90
2017-09-11T11:52:08.249Z,13.90
2017-09-11T11:54:35.719Z,14.00
2017-09-11T11:57:03.170Z,14.10
2017-09-11T11:59:30.646Z,14.30
2017-09-11T12:01:58.086Z,14.30
2017-09-11T12:04:25.545Z,14.50
2017-09-11T12:06:52.994Z,14.40
2017-09-11T12:09:20.445Z,14.40
2017-09-11T12:11:47.897Z,14.40
2017-09-11T12:14:15.364Z,14.60
2017-09-11T12:16:42.819Z,14.60
2017-09-11T12:19:10.278Z,14.60
2017-09-11T12:21:37.734Z,14.70
2017-09-11T12:24:05.194Z,14.90
2017-09-11T12:26:32.641Z,15.10
2017-09-11T12:29:00.118Z,15.20
2017-09-11T12:31:27.565Z,15.60
2017-09-11T12:33:55.018Z,16.00
2017-09-11T12:36:22.477Z,16.40
2017-09-11T12:38:49.925Z,16.50
2017-09-11T12:41:17.491Z,16.50
2017-09-11T12:43:44.945Z,15.90
2017-09-11T12:46:12.402Z,15.80
2017-09-11T12:48:39.854Z,15.80
2017-09-11T12:51:07.324Z,15.90
2017-09-11T12:53:34.776Z,16.00
2017-09-11T12:56:03.038Z,16.20
2017-09-11T12:58:30.502Z,16.20
2017-09-11T13:00:57.956Z,16.70
2017-09-11T13:03:25.514Z,16.80
2017-09-11T13:05:52.977Z,17.20
2017-09-11T13:08:20.429Z,17.50
2017-09-11T13:10:47.890Z,17.50
2017-09-11T13:13:15.351Z,17.50
2017-09-11T13:15:42.906Z,17.40
2017-09-11T13:18:10.366Z,17.20
2017-09-11T13:20:37.817Z,17.20
2017-09-11T13:23:05.369Z,17.30
2017-09-11T13:25:32.821Z,17.40
2017-09-11T13:28:00.278Z,17.20
2017-09-11T13:30:27.728Z,17.50
2017-09-11T13:32:55.182Z,17.50
2017-09-11T13:35:22.633Z,17.20
2017-09-11T13:37:50.090Z,17.20
2017-09-11T13:40:17.537Z,17.10
2017-09-11T13:42:45.022Z,17.00
2017-09-11T13:45:12.470Z,17.30
2017-09-11T13:47:40.040Z,17.40
2017-09-11T13:50:07.590Z,17.50
2017-09-11T13:52:35.060Z,17.90
2017-09-11T13:55:02.505Z,18.30
2017-09-11T13:57:29.961Z,18.50
2017-09-11T13:59:57.518Z,18.80
2017-09-11T14:02:24.988Z,18.70
2017-09-11T14:04:52.441Z,18.50
2017-09-11T14:07:19.903Z,18.50
2017-09-11T14:09:47.349Z,18.50
2017-09-11T14:12:14.831Z,18.30
2017-09-11T14:14:43.033Z,18.00
2017-09-11T14:17:10.480Z,17.90
2017-09-11T14:19:37.938Z,17.80
2017-09-11T14:22:06.146Z,17.50
2017-09-11T14:24:33.606Z,17.50
2017-09-11T14:27:01.075Z,17.60
2017-09-11T14:29:28.525Z,17.50
2017-09-11T14:31:55.978Z,17.50
2017-09-11T14:34:23.442Z,17.60
2017-09-11T14:36:50.885Z,17.90
2017-09-11T14:39:18.348Z,17.40
2017-09-11T14:41:45.813Z,17.40
2017-09-11T14:44:13.374Z,17.50
2017-09-11T14:46:40.829Z,17.30
2017-09-11T14:49:08.290Z,17.00
2017-09-11T14:51:35.750Z,17.00
2017-09-11T14:54:03.306Z,17.30
2017-09-11T14:56:30.764Z,17.30
2017-09-11T14:58:58.229Z,17.40
2017-09-11T15:01:25.687Z,17.20
2017-09-11T15:03:53.140Z,17.10
2017-09-11T15:06:20.598Z,17.30
2017-09-11T15:08:48.054Z,17.30
2017-09-11T15:11:15.509Z,17.50
2017-09-11T15:13:42.989Z,17.40
2017-09-11T15:16:11.222Z,17.40
2017-09-11T15:18:38.677Z,17.30
2017-09-11T15:21:06.240Z,17.40
2017-09-11T15:23:33.797Z,17.20
2017-09-11T15:26:01.357Z,17.20
2017-09-11T15:28:28.809Z,16.80
2017-09-11T15:30:56.377Z,16.40
2017-09-11T15:33:23.825Z,16.40
2017-09-11T15:35:51.285Z,16.50
2017-09-11T15:38:18.737Z,16.70
2017-09-11T15:40:46.202Z,16.60
2017-09-11T15:43:13.662Z,16.70
2017-09-11T15:45:41.125Z,17.00
2017-09-11T15:48:08.569Z,17.00
2017-09-11T15:50:36.043Z,17.10
2017-09-11T15:53:03.490Z,17.20
2017-09-11T15:55:31.043Z,17.20
2017-09-11T15:57:58.501Z,17.10
2017-09-11T16:00:25.961Z,17.00
2017-09-11T16:02:53.422Z,17.10
2017-09-11T16:05:20.978Z,17.00
2017-09-11T16:07:48.525Z,17.10
2017-09-11T16:10:15.987Z,17.00
2017-09-11T16:12:43.434Z,17.00
2017-09-11T16:15:11.015Z,17.00
2017-09-11T16:17:38.453Z,16.90
2017-09-11T16:20:06.010Z,16.80
2017-09-11T16:22:33.478Z,16.60
2017-09-11T16:25:01.034Z,16.70
2017-09-11T16:27:28.489Z,16.40
2017-09-11T16:29:56.042Z,16.10
2017-09-11T16:32:23.508Z,15.80
2017-09-11T16:34:50.959Z,15.60
2017-09-11T16:37:18.409Z,15.50
2017-09-11T16:39:45.970Z,15.50
2017-09-11T16:42:13.429Z,15.40
2017-09-11T16:44:40.878Z,15.60
2017-09-11T16:47:08.338Z,15.70
2017-09-11T16:49:35.898Z,15.90
2017-09-11T16:52:03.456Z,15.90
2017-09-11T16:54:30.909Z,15.80
2017-09-11T16:56:58.378Z,15.80
2017-09-11T16:59:25.820Z,16.00
2017-09-11T17:01:53.290Z,16.00
2017-09-11T17:04:20.733Z,16.20
2017-09-11T17:06:48.200Z,16.00
2017-09-11T17:09:15.637Z,15.70
2017-09-11T17:11:43.099Z,15.50
2017-09-11T17:14:10.554Z,15.30
2017-09-11T17:16:38.016Z,15.10
2017-09-11T17:19:05.473Z,15.00
2017-09-11T17:21:33.385Z,14.80
2017-09-11T17:24:01.625Z,14.80
2017-09-11T17:26:29.864Z,14.80
2017-09-11T17:28:58.110Z,14.60
2017-09-11T17:31:26.701Z,14.50
2017-09-11T17:33:54.200Z,14.50
2017-09-11T17:36:21.780Z,14.50
2017-09-11T17:38:49.270Z,14.40
2017-09-11T17:41:17.547Z,14.20
2017-09-11T17:43:46.837Z,14.30
2017-09-11T17:46:14.342Z,14.20
2017-09-11T17:48:42.986Z,14.20
2017-09-11T17:51:11.262Z,14.10
2017-09-11T17:53:39.539Z,14.10
2017-09-11T17:56:07.365Z,14.10
2017-09-11T17:58:34.866Z,14.10
2017-09-11T18:01:03.142Z,14.10
2017-09-11T18:03:31.405Z,14.00
2017-09-11T18:06:00.486Z,13.90
2017-09-11T18:08:28.071Z,13.80
2017-09-11T18:10:56.387Z,13.90
2017-09-11T18:13:24.962Z,13.80
2017-09-11T18:15:54.194Z,13.90
2017-09-11T18:18:21.702Z,13.90
2017-09-11T18:20:49.227Z,13.90
2017-09-11T18:23:16.947Z,13.80
2017-09-11T18:25:44.447Z,13.70
2017-09-11T18:28:12.719Z,13.60
2017-09-11T18:30:41.271Z,13.60
2017-09-11T18:33:08.753Z,13.60
2017-09-11T18:35:37.113Z,13.40
2017-09-11T18:38:05.292Z,13.40
2017-09-11T18:40:34.725Z,13.40
2017-09-11T18:43:03.010Z,13.40
2017-09-11T18:45:32.074Z,13.40
2017-09-11T18:47:59.541Z,13.40
2017-09-11T18:50:28.726Z,13.40
2017-09-11T18:52:56.277Z,13.40
2017-09-11T18:55:23.758Z,13.50
2017-09-11T18:57:51.969Z,13.40
2017-09-11T19:00:20.223Z,13.40
2017-09-11T19:02:50.159Z,13.40
2017-09-11T19:05:18.410Z,13.30
2017-09-11T19:07:46.661Z,13.30
2017-09-11T19:10:14.927Z,13.20
2017-09-11T19:12:42.393Z,13.20
2017-09-11T19:15:09.850Z,13.20
2017-09-11T19:17:37.422Z,13.20
2017-09-11T19:20:04.943Z,13.20
2017-09-11T19:22:32.481Z,13.20
2017-09-11T19:24:59.978Z,13.20
2017-09-11T19:27:28.373Z,13.00
2017-09-11T19:29:55.906Z,13.00
2017-09-11T19:32:23.386Z,13.10
2017-09-11T19:34:51.613Z,13.00
2017-09-11T19:37:19.072Z,13.00
2017-09-11T19:39:46.547Z,12.90
2017-09-11T19:42:14.001Z,12.80
2017-09-11T19:44:41.462Z,12.70
2017-09-11T19:47:09.469Z,12.80
2017-09-11T19:49:37.739Z,12.90
2017-09-11T19:52:07.234Z,12.90
2017-09-11T19:54:35.583Z,12.90
2017-09-11T19:57:03.036Z,12.80
2017-09-11T19:59:30.514Z,12.80
2017-09-11T20:01:57.960Z,12.60
2017-09-11T20:04:25.445Z,12.50
2017-09-11T20:06:53.659Z,12.50
2017-09-11T20:09:21.109Z,12.50
2017-09-11T20:11:49.566Z,12.50
2017-09-11T20:14:17.045Z,12.40
2017-09-11T20:16:44.502Z,12.40
2017-09-11T20:19:11.955Z,12.30
2017-09-11T20:21:39.408Z,12.20
2017-09-11T20:24:06.855Z,12.20
2017-09-11T20:26:34.311Z,12.10
2017-09-11T20:29:01.825Z,12.00
2017-09-11T20:31:29.375Z,11.90
2017-09-11T20:33:56.826Z,11.80
2017-09-11T20:36:24.283Z,11.80
2017-09-11T20:38:51.741Z,11.70
2017-09-11T20:41:19.207Z,11.70
2017-09-11T20:43:46.658Z,11.80
2017-09-11T20:46:14.123Z,11.60
2017-09-11T20:48:41.578Z,11.50
2017-09-11T20:51:09.814Z,11.50
2017-09-11T20:53:37.298Z,11.40
2017-09-11T20:56:04.745Z,11.40
2017-09-11T20:58:32.212Z,11.30
2017-09-11T21:00:59.670Z,11.20
2017-09-11T21:03:27.227Z,11.20
2017-09-11T21:05:54.678Z,11.10
2017-09-11T21:08:22.134Z,11.00
2017-09-11T21:10:49.582Z,11.00
2017-09-11T21:13:17.042Z,10.90
2017-09-11T21:15:44.493Z,10.80
2017-09-11T21:18:11.974Z,10.60
2017-09-11T21:20:39.429Z,10.50
2017-09-11T21:23:06.889Z,10.40
2017-09-11T21:25:34.346Z,10.30
2017-09-11T21:28:01.805Z,10.20
2017-09-11T21:30:29.254Z,10.20
2017-09-11T21:32:56.717Z,10.20
2017-09-11T21:35:24.170Z,10.10
2017-09-11T21:37:52.510Z,10.20
2017-09-11T21:40:19.965Z,10.10
2017-09-11T21:42:47.438Z,10.10
2017-09-11T21:45:14.889Z,10.10
2017-09-11T21:47:42.347Z,10.10
2017-09-11T21:50:09.830Z,10.10
2017-09-11T21:52:37.284Z,10.00
2017-09-11T21:55:04.746Z,10.00
2017-09-11T21:57:32.198Z,10.00
2017-09-11T22:02:36.298Z,9.80
2017-09-11T22:05:03.745Z,9.80
2017-09-11T22:07:31.207Z,9.80
2017-09-11T22:10:00.473Z,9.90
2017-09-11T22:12:28.690Z,9.80
2017-09-11T22:14:59.158Z,9.80
2017-09-11T22:17:27.378Z,9.90
2017-09-11T22:19:54.832Z,9.80
2017-09-11T22:22:22.329Z,9.80
2017-09-11T22:24:49.786Z,9.80
2017-09-11T22:27:17.239Z,9.80
2017-09-11T22:29:44.707Z,9.80
2017-09-11T22:32:12.157Z,9.80
2017-09-11T22:34:39.622Z,9.80
2017-09-11T22:37:07.157Z,9.70
2017-09-11T22:39:34.624Z,9.70
2017-09-11T22:42:02.058Z,9.70
2017-09-11T22:44:29.510Z,9.70
2017-09-11T22:46:56.995Z,9.70
2017-09-11T22:49:24.441Z,9.80
2017-09-11T22:51:51.885Z,9.80
2017-09-11T22:54:19.354Z,9.90
2017-09-11T22:56:46.809Z,9.90
2017-09-11T22:59:14.250Z,9.90
2017-09-11T23:01:41.725Z,9.90
2017-09-11T23:04:09.174Z,9.90
2017-09-11T23:06:36.635Z,10.00
2017-09-11T23:09:04.097Z,10.00
2017-09-11T23:11:31.658Z,10.00
2017-09-11T23:13:59.107Z,9.90
2017-09-11T23:16:26.563Z,10.00
2017-09-11T23:18:54.030Z,10.10
2017-09-11T23:21:21.491Z,10.10
2017-09-11T23:23:48.957Z,10.10
2017-09-11T23:26:16.405Z,10.10
2017-09-11T23:28:43.954Z,10.00
2017-09-11T23:31:12.031Z,10.00
2017-09-11T23:33:39.701Z,10.10
2017-09-11T23:36:07.150Z,10.10
2017-09-11T23:38:34.622Z,10.20
2017-09-11T23:41:02.088Z,10.20
2017-09-11T23:43:30.324Z,10.00
2017-09-11T23:45:57.782Z,10.00
2017-09-11T23:48:25.233Z,10.10
2017-09-11T23:50:52.686Z,10.10
2017-09-11T23:53:20.254Z,10.20
2017-09-11T23:55:47.708Z,10.30
2017-09-11T23:58:15.170Z,10.50
